Aérodrome :
LOGIN :

S'inscrire | Disclaimer

   EN    FR    IT 

 










Légende :    VFR   VFR Marginal   IFR   IFR Intensif   IFR Très Intensif
Visi : 
Plafond : 
>= 8 km
>= 3000ft
5 à 8 km
1000 à 3000 ft
1500m à 5 km
500 à 1000 ft
800 à 1500m
200 à 500 ft
< 800m
< 200 ft
Symboles :   Orages  Brouillard  Fortes neiges  Fortes précipitations  Vent > 20 kt
SIGMETs :   Divers  Orages  Givrage  Turbulence  Onde Orograph.  Cendres Volcan.







- Altitude de l'aérodrome : 242 ft
- Code IATA : DUB


EIDW - Dublin

DERNIER METAR :
  • 231630Z 21008KT 9999 FEW018 BKN070 16/11 Q1011 NOSIG

METARs EXPIRÉS :
  • 231600Z 20009KT 9999 FEW018 BKN070 16/10 Q1011 NOSIG
  • 231530Z 20008KT 9999 FEW018 BKN070 16/11 Q1011 NOSIG
  • 231500Z 20008KT 9999 FEW018 BKN070 16/11 Q1011 NOSIG
  • 231430Z 20007KT 160V230 9999 FEW018 BKN070 16/11 Q1011 NOSIG
  • 231400Z 18008KT 9999 FEW018 BKN070 16/11 Q1012 NOSIG

TAF TAF EIDW
Valide du 23 à 12h jusqu'au 24 à 12h UTC


231100Z 2312/2412 22012KT 9999 FEW015 BKN027
BECMG 2321/2324 18006KT
BECMG 2400/2402 15007KT
TEMPO 2404/2408 5000 -RA BKN013
BECMG 2403/2405 18013KT
BECMG 2405/2407 24018G30KT
Pas de NOTAMs connus pour ce terrain.



MET'MAP, la Météo Aéronautique d'un coup d'oeil ! - Copyright ORBIFLY Décembre 2007 - Disclaimer

ORBIFLY MET'MAP TEAM :

Programmation & Développement : Alexandra Zaïnal
Conception & Développement : Baudouin d'Aumeries
Co-Programmation & Développement : Marc-Olivier Méhu
Soutien technique & logistique : Manuel Goepfert

Contact : metmap@orbifly.com




SOURCES & CREDITS :

   NOAA